sensor_id;sensor_type;location;lat;lon;timestamp;P1;durP1;ratioP1;P2;durP2;ratioP2
16665;SDS011;8446;50.998;6.250;2022-07-21T00:01:36;7.00;;;5.20;;
16665;SDS011;8446;50.998;6.250;2022-07-21T00:04:03;8.83;;;5.67;;
16665;SDS011;8446;50.998;6.250;2022-07-21T00:06:30;8.27;;;6.40;;
16665;SDS011;8446;50.998;6.250;2022-07-21T00:08:57;10.50;;;6.30;;
16665;SDS011;8446;50.998;6.250;2022-07-21T00:11:25;6.57;;;5.90;;
16665;SDS011;8446;50.998;6.250;2022-07-21T00:13:51;11.07;;;7.00;;
16665;SDS011;8446;50.998;6.250;2022-07-21T00:16:18;9.03;;;7.10;;
16665;SDS011;8446;50.998;6.250;2022-07-21T00:18:45;10.13;;;7.57;;
16665;SDS011;8446;50.998;6.250;2022-07-21T00:21:12;10.53;;;7.17;;
16665;SDS011;8446;50.998;6.250;2022-07-21T00:23:39;9.17;;;6.77;;
16665;SDS011;8446;50.998;6.250;2022-07-21T00:26:06;7.90;;;6.70;;
16665;SDS011;8446;50.998;6.250;2022-07-21T00:28:34;8.43;;;6.67;;
16665;SDS011;8446;50.998;6.250;2022-07-21T00:31:01;11.13;;;7.67;;
16665;SDS011;8446;50.998;6.250;2022-07-21T00:33:27;8.60;;;6.43;;
16665;SDS011;8446;50.998;6.250;2022-07-21T00:35:54;8.90;;;7.40;;
16665;SDS011;8446;50.998;6.250;2022-07-21T00:38:21;9.33;;;6.10;;
16665;SDS011;8446;50.998;6.250;2022-07-21T00:40:48;7.47;;;5.80;;
16665;SDS011;8446;50.998;6.250;2022-07-21T00:43:14;10.13;;;6.87;;
16665;SDS011;8446;50.998;6.250;2022-07-21T00:45:42;9.43;;;5.80;;
16665;SDS011;8446;50.998;6.250;2022-07-21T00:48:09;8.37;;;6.83;;
16665;SDS011;8446;50.998;6.250;2022-07-21T00:50:36;9.40;;;7.03;;
16665;SDS011;8446;50.998;6.250;2022-07-21T00:53:03;10.57;;;7.70;;
16665;SDS011;8446;50.998;6.250;2022-07-21T00:55:30;12.30;;;8.07;;
16665;SDS011;8446;50.998;6.250;2022-07-21T00:57:57;8.93;;;7.50;;
16665;SDS011;8446;50.998;6.250;2022-07-21T01:00:24;12.60;;;7.63;;
16665;SDS011;8446;50.998;6.250;2022-07-21T01:02:56;10.57;;;7.87;;
16665;SDS011;8446;50.998;6.250;2022-07-21T01:05:23;12.53;;;7.90;;
16665;SDS011;8446;50.998;6.250;2022-07-21T01:07:52;9.93;;;7.97;;
16665;SDS011;8446;50.998;6.250;2022-07-21T01:10:21;11.37;;;8.47;;
16665;SDS011;8446;50.998;6.250;2022-07-21T01:12:49;12.27;;;8.27;;
16665;SDS011;8446;50.998;6.250;2022-07-21T01:15:17;9.90;;;8.00;;
16665;SDS011;8446;50.998;6.250;2022-07-21T01:17:45;10.97;;;7.50;;
16665;SDS011;8446;50.998;6.250;2022-07-21T01:20:15;13.53;;;7.90;;
16665;SDS011;8446;50.998;6.250;2022-07-21T01:22:45;10.47;;;8.40;;
16665;SDS011;8446;50.998;6.250;2022-07-21T01:25:14;10.73;;;7.53;;
16665;SDS011;8446;50.998;6.250;2022-07-21T01:27:41;10.97;;;8.70;;
16665;SDS011;8446;50.998;6.250;2022-07-21T01:30:08;11.20;;;8.43;;
16665;SDS011;8446;50.998;6.250;2022-07-21T01:32:37;15.50;;;9.30;;
16665;SDS011;8446;50.998;6.250;2022-07-21T01:35:05;13.63;;;8.23;;
16665;SDS011;8446;50.998;6.250;2022-07-21T01:37:38;11.93;;;9.57;;
16665;SDS011;8446;50.998;6.250;2022-07-21T01:40:08;10.17;;;8.20;;
16665;SDS011;8446;50.998;6.250;2022-07-21T01:42:54;15.80;;;9.80;;
16665;SDS011;8446;50.998;6.250;2022-07-21T01:45:21;17.93;;;9.50;;
16665;SDS011;8446;50.998;6.250;2022-07-21T01:47:48;12.90;;;9.20;;
16665;SDS011;8446;50.998;6.250;2022-07-21T01:50:15;12.37;;;8.70;;
16665;SDS011;8446;50.998;6.250;2022-07-21T01:52:43;21.87;;;10.87;;
16665;SDS011;8446;50.998;6.250;2022-07-21T01:55:12;15.10;;;9.93;;
16665;SDS011;8446;50.998;6.250;2022-07-21T01:57:38;15.40;;;10.00;;
16665;SDS011;8446;50.998;6.250;2022-07-21T02:00:06;12.90;;;10.00;;
16665;SDS011;8446;50.998;6.250;2022-07-21T02:02:33;15.23;;;10.30;;
16665;SDS011;8446;50.998;6.250;2022-07-21T02:05:00;18.40;;;11.70;;
16665;SDS011;8446;50.998;6.250;2022-07-21T02:07:27;13.43;;;9.90;;
16665;SDS011;8446;50.998;6.250;2022-07-21T02:09:54;20.33;;;10.53;;
16665;SDS011;8446;50.998;6.250;2022-07-21T02:12:22;13.83;;;10.53;;
16665;SDS011;8446;50.998;6.250;2022-07-21T02:14:49;16.70;;;10.93;;
16665;SDS011;8446;50.998;6.250;2022-07-21T02:17:16;15.17;;;10.20;;
16665;SDS011;8446;50.998;6.250;2022-07-21T02:19:42;16.00;;;11.23;;
16665;SDS011;8446;50.998;6.250;2022-07-21T02:22:09;15.00;;;10.53;;
16665;SDS011;8446;50.998;6.250;2022-07-21T02:24:36;14.97;;;10.93;;
16665;SDS011;8446;50.998;6.250;2022-07-21T02:27:05;19.43;;;11.80;;
16665;SDS011;8446;50.998;6.250;2022-07-21T02:29:33;16.93;;;11.50;;
16665;SDS011;8446;50.998;6.250;2022-07-21T02:32:00;17.10;;;10.90;;
16665;SDS011;8446;50.998;6.250;2022-07-21T02:34:26;16.20;;;11.77;;
16665;SDS011;8446;50.998;6.250;2022-07-21T02:36:53;14.70;;;11.07;;
16665;SDS011;8446;50.998;6.250;2022-07-21T02:39:20;22.30;;;11.30;;
16665;SDS011;8446;50.998;6.250;2022-07-21T02:41:47;16.60;;;10.93;;
16665;SDS011;8446;50.998;6.250;2022-07-21T02:44:13;15.90;;;11.30;;
16665;SDS011;8446;50.998;6.250;2022-07-21T02:46:41;16.60;;;11.67;;
16665;SDS011;8446;50.998;6.250;2022-07-21T02:49:08;14.70;;;12.27;;
16665;SDS011;8446;50.998;6.250;2022-07-21T02:51:35;15.70;;;12.03;;
16665;SDS011;8446;50.998;6.250;2022-07-21T02:54:02;14.87;;;11.20;;
16665;SDS011;8446;50.998;6.250;2022-07-21T02:56:29;17.30;;;11.50;;
16665;SDS011;8446;50.998;6.250;2022-07-21T02:58:56;16.30;;;11.30;;
16665;SDS011;8446;50.998;6.250;2022-07-21T03:01:22;18.17;;;10.77;;
16665;SDS011;8446;50.998;6.250;2022-07-21T03:03:50;14.87;;;11.83;;
16665;SDS011;8446;50.998;6.250;2022-07-21T03:06:17;21.77;;;12.67;;
16665;SDS011;8446;50.998;6.250;2022-07-21T03:08:44;16.43;;;11.40;;
16665;SDS011;8446;50.998;6.250;2022-07-21T03:11:11;19.43;;;11.43;;
16665;SDS011;8446;50.998;6.250;2022-07-21T03:13:37;15.20;;;10.73;;
16665;SDS011;8446;50.998;6.250;2022-07-21T03:16:04;16.97;;;11.83;;
16665;SDS011;8446;50.998;6.250;2022-07-21T03:18:31;13.47;;;11.10;;
16665;SDS011;8446;50.998;6.250;2022-07-21T03:20:59;17.23;;;12.80;;
16665;SDS011;8446;50.998;6.250;2022-07-21T03:23:26;15.40;;;11.47;;
16665;SDS011;8446;50.998;6.250;2022-07-21T03:25:53;17.60;;;11.70;;
16665;SDS011;8446;50.998;6.250;2022-07-21T03:28:19;18.37;;;12.83;;
16665;SDS011;8446;50.998;6.250;2022-07-21T03:30:46;22.23;;;13.57;;
16665;SDS011;8446;50.998;6.250;2022-07-21T03:33:13;16.93;;;12.27;;
16665;SDS011;8446;50.998;6.250;2022-07-21T03:35:40;20.70;;;13.00;;
16665;SDS011;8446;50.998;6.250;2022-07-21T03:38:08;15.90;;;13.20;;
16665;SDS011;8446;50.998;6.250;2022-07-21T03:40:35;21.07;;;12.73;;
16665;SDS011;8446;50.998;6.250;2022-07-21T03:43:04;18.10;;;13.00;;
16665;SDS011;8446;50.998;6.250;2022-07-21T03:45:32;17.30;;;12.77;;
16665;SDS011;8446;50.998;6.250;2022-07-21T03:48:02;25.90;;;13.77;;
16665;SDS011;8446;50.998;6.250;2022-07-21T03:50:30;17.70;;;13.50;;
16665;SDS011;8446;50.998;6.250;2022-07-21T03:52:58;18.20;;;12.83;;
16665;SDS011;8446;50.998;6.250;2022-07-21T03:55:26;23.80;;;14.30;;
16665;SDS011;8446;50.998;6.250;2022-07-21T03:57:55;22.87;;;13.73;;
16665;SDS011;8446;50.998;6.250;2022-07-21T04:00:24;18.10;;;13.07;;
16665;SDS011;8446;50.998;6.250;2022-07-21T04:02:52;19.10;;;13.40;;
16665;SDS011;8446;50.998;6.250;2022-07-21T04:05:20;25.23;;;13.53;;
16665;SDS011;8446;50.998;6.250;2022-07-21T04:07:48;19.63;;;14.40;;
16665;SDS011;8446;50.998;6.250;2022-07-21T04:10:17;17.10;;;13.37;;
16665;SDS011;8446;50.998;6.250;2022-07-21T04:12:46;17.67;;;13.30;;
16665;SDS011;8446;50.998;6.250;2022-07-21T04:15:13;24.53;;;14.50;;
16665;SDS011;8446;50.998;6.250;2022-07-21T04:17:40;24.83;;;13.90;;
16665;SDS011;8446;50.998;6.250;2022-07-21T04:20:08;26.00;;;14.53;;
16665;SDS011;8446;50.998;6.250;2022-07-21T04:22:36;20.90;;;14.03;;
16665;SDS011;8446;50.998;6.250;2022-07-21T04:25:04;23.97;;;14.63;;
16665;SDS011;8446;50.998;6.250;2022-07-21T04:27:32;21.43;;;13.97;;
16665;SDS011;8446;50.998;6.250;2022-07-21T04:30:01;28.83;;;14.23;;
16665;SDS011;8446;50.998;6.250;2022-07-21T04:32:28;20.43;;;13.87;;
16665;SDS011;8446;50.998;6.250;2022-07-21T04:34:55;21.77;;;15.70;;
16665;SDS011;8446;50.998;6.250;2022-07-21T04:37:22;20.27;;;14.37;;
16665;SDS011;8446;50.998;6.250;2022-07-21T04:39:49;19.20;;;14.90;;
16665;SDS011;8446;50.998;6.250;2022-07-21T04:42:16;22.00;;;15.37;;
16665;SDS011;8446;50.998;6.250;2022-07-21T04:44:42;20.27;;;14.70;;
16665;SDS011;8446;50.998;6.250;2022-07-21T04:47:10;34.50;;;16.50;;
16665;SDS011;8446;50.998;6.250;2022-07-21T04:49:37;21.27;;;14.30;;
16665;SDS011;8446;50.998;6.250;2022-07-21T04:52:04;22.23;;;15.43;;
16665;SDS011;8446;50.998;6.250;2022-07-21T04:54:31;20.47;;;13.07;;
16665;SDS011;8446;50.998;6.250;2022-07-21T04:56:58;22.07;;;15.20;;
16665;SDS011;8446;50.998;6.250;2022-07-21T04:59:27;20.90;;;14.00;;
16665;SDS011;8446;50.998;6.250;2022-07-21T05:01:54;20.00;;;12.70;;
16665;SDS011;8446;50.998;6.250;2022-07-21T05:04:22;22.43;;;13.07;;
16665;SDS011;8446;50.998;6.250;2022-07-21T05:06:49;20.20;;;12.73;;
16665;SDS011;8446;50.998;6.250;2022-07-21T05:09:16;15.90;;;12.30;;
16665;SDS011;8446;50.998;6.250;2022-07-21T05:11:42;19.63;;;12.53;;
16665;SDS011;8446;50.998;6.250;2022-07-21T05:14:09;19.40;;;12.87;;
16665;SDS011;8446;50.998;6.250;2022-07-21T05:16:36;19.63;;;14.40;;
16665;SDS011;8446;50.998;6.250;2022-07-21T05:19:03;21.80;;;13.90;;
16665;SDS011;8446;50.998;6.250;2022-07-21T05:21:31;18.20;;;14.17;;
16665;SDS011;8446;50.998;6.250;2022-07-21T05:23:57;21.00;;;13.50;;
16665;SDS011;8446;50.998;6.250;2022-07-21T05:26:24;16.50;;;13.23;;
16665;SDS011;8446;50.998;6.250;2022-07-21T05:28:51;16.90;;;12.20;;
16665;SDS011;8446;50.998;6.250;2022-07-21T05:31:17;16.40;;;10.90;;
16665;SDS011;8446;50.998;6.250;2022-07-21T05:33:44;23.87;;;12.40;;
16665;SDS011;8446;50.998;6.250;2022-07-21T05:36:11;15.33;;;11.53;;
16665;SDS011;8446;50.998;6.250;2022-07-21T05:38:39;15.70;;;12.80;;
16665;SDS011;8446;50.998;6.250;2022-07-21T05:41:06;22.33;;;12.80;;
16665;SDS011;8446;50.998;6.250;2022-07-21T05:43:32;17.50;;;12.20;;
16665;SDS011;8446;50.998;6.250;2022-07-21T05:45:59;15.27;;;11.57;;
16665;SDS011;8446;50.998;6.250;2022-07-21T05:48:26;21.13;;;11.90;;
16665;SDS011;8446;50.998;6.250;2022-07-21T05:50:53;17.07;;;11.70;;
16665;SDS011;8446;50.998;6.250;2022-07-21T05:53:20;15.03;;;11.23;;
16665;SDS011;8446;50.998;6.250;2022-07-21T05:55:48;16.33;;;10.87;;
16665;SDS011;8446;50.998;6.250;2022-07-21T05:58:15;16.07;;;10.80;;
16665;SDS011;8446;50.998;6.250;2022-07-21T06:00:43;16.33;;;10.60;;
16665;SDS011;8446;50.998;6.250;2022-07-21T06:03:30;13.47;;;10.70;;
16665;SDS011;8446;50.998;6.250;2022-07-21T06:05:57;13.30;;;8.80;;
16665;SDS011;8446;50.998;6.250;2022-07-21T06:08:24;20.10;;;9.27;;
16665;SDS011;8446;50.998;6.250;2022-07-21T06:10:52;12.57;;;9.50;;
16665;SDS011;8446;50.998;6.250;2022-07-21T06:13:18;12.90;;;8.90;;
16665;SDS011;8446;50.998;6.250;2022-07-21T06:15:45;14.83;;;10.57;;
16665;SDS011;8446;50.998;6.250;2022-07-21T06:18:12;14.50;;;10.60;;
16665;SDS011;8446;50.998;6.250;2022-07-21T06:20:40;11.80;;;9.40;;
16665;SDS011;8446;50.998;6.250;2022-07-21T06:23:06;15.03;;;8.90;;
16665;SDS011;8446;50.998;6.250;2022-07-21T06:25:34;15.07;;;9.10;;
16665;SDS011;8446;50.998;6.250;2022-07-21T06:28:02;12.30;;;8.63;;
16665;SDS011;8446;50.998;6.250;2022-07-21T06:30:29;12.63;;;8.30;;
16665;SDS011;8446;50.998;6.250;2022-07-21T06:32:56;14.70;;;8.17;;
16665;SDS011;8446;50.998;6.250;2022-07-21T06:35:24;17.47;;;8.80;;
16665;SDS011;8446;50.998;6.250;2022-07-21T06:37:51;10.13;;;7.87;;
16665;SDS011;8446;50.998;6.250;2022-07-21T06:40:18;10.20;;;7.10;;
16665;SDS011;8446;50.998;6.250;2022-07-21T06:42:45;12.17;;;7.87;;
16665;SDS011;8446;50.998;6.250;2022-07-21T06:45:13;12.93;;;6.70;;
16665;SDS011;8446;50.998;6.250;2022-07-21T06:47:40;11.13;;;7.20;;
16665;SDS011;8446;50.998;6.250;2022-07-21T06:50:07;10.57;;;6.80;;
16665;SDS011;8446;50.998;6.250;2022-07-21T06:52:35;8.53;;;6.77;;
16665;SDS011;8446;50.998;6.250;2022-07-21T06:55:03;8.20;;;6.47;;
16665;SDS011;8446;50.998;6.250;2022-07-21T06:57:32;14.20;;;7.00;;
16665;SDS011;8446;50.998;6.250;2022-07-21T06:59:59;16.27;;;6.90;;
16665;SDS011;8446;50.998;6.250;2022-07-21T07:02:27;12.77;;;7.77;;
16665;SDS011;8446;50.998;6.250;2022-07-21T07:04:54;10.37;;;7.40;;
16665;SDS011;8446;50.998;6.250;2022-07-21T07:07:21;8.50;;;7.00;;
16665;SDS011;8446;50.998;6.250;2022-07-21T07:09:48;11.63;;;7.10;;
16665;SDS011;8446;50.998;6.250;2022-07-21T07:12:15;10.40;;;7.17;;
16665;SDS011;8446;50.998;6.250;2022-07-21T07:14:42;13.60;;;7.23;;
16665;SDS011;8446;50.998;6.250;2022-07-21T07:17:08;13.40;;;7.30;;
16665;SDS011;8446;50.998;6.250;2022-07-21T07:19:37;13.00;;;7.63;;
16665;SDS011;8446;50.998;6.250;2022-07-21T07:22:04;9.97;;;7.80;;
16665;SDS011;8446;50.998;6.250;2022-07-21T07:24:30;11.90;;;8.40;;
16665;SDS011;8446;50.998;6.250;2022-07-21T07:26:57;20.03;;;8.80;;
16665;SDS011;8446;50.998;6.250;2022-07-21T07:29:24;10.90;;;8.30;;
16665;SDS011;8446;50.998;6.250;2022-07-21T07:31:51;10.57;;;8.10;;
16665;SDS011;8446;50.998;6.250;2022-07-21T07:34:17;14.10;;;8.50;;
16665;SDS011;8446;50.998;6.250;2022-07-21T07:36:45;22.93;;;9.07;;
16665;SDS011;8446;50.998;6.250;2022-07-21T07:39:12;14.10;;;9.30;;
16665;SDS011;8446;50.998;6.250;2022-07-21T07:41:40;13.03;;;8.50;;
16665;SDS011;8446;50.998;6.250;2022-07-21T07:44:08;15.23;;;8.57;;
16665;SDS011;8446;50.998;6.250;2022-07-21T07:46:35;17.40;;;8.80;;
16665;SDS011;8446;50.998;6.250;2022-07-21T07:49:02;9.93;;;8.93;;
16665;SDS011;8446;50.998;6.250;2022-07-21T07:51:29;14.13;;;9.17;;
16665;SDS011;8446;50.998;6.250;2022-07-21T07:53:57;15.67;;;9.87;;
16665;SDS011;8446;50.998;6.250;2022-07-21T07:56:25;19.80;;;9.67;;
16665;SDS011;8446;50.998;6.250;2022-07-21T07:58:52;12.03;;;9.07;;
16665;SDS011;8446;50.998;6.250;2022-07-21T08:01:19;13.20;;;9.40;;
16665;SDS011;8446;50.998;6.250;2022-07-21T08:03:46;13.13;;;9.13;;
16665;SDS011;8446;50.998;6.250;2022-07-21T08:06:13;17.90;;;9.33;;
16665;SDS011;8446;50.998;6.250;2022-07-21T08:08:40;17.63;;;8.70;;
16665;SDS011;8446;50.998;6.250;2022-07-21T08:11:08;12.27;;;8.67;;
16665;SDS011;8446;50.998;6.250;2022-07-21T08:13:36;16.10;;;9.87;;
16665;SDS011;8446;50.998;6.250;2022-07-21T08:16:03;11.40;;;8.87;;
16665;SDS011;8446;50.998;6.250;2022-07-21T08:18:31;13.23;;;9.53;;
16665;SDS011;8446;50.998;6.250;2022-07-21T08:20:58;12.60;;;8.77;;
16665;SDS011;8446;50.998;6.250;2022-07-21T08:23:24;16.73;;;9.10;;
16665;SDS011;8446;50.998;6.250;2022-07-21T08:25:51;10.53;;;8.50;;
16665;SDS011;8446;50.998;6.250;2022-07-21T08:28:19;10.40;;;7.33;;
16665;SDS011;8446;50.998;6.250;2022-07-21T08:30:46;13.60;;;8.10;;
16665;SDS011;8446;50.998;6.250;2022-07-21T08:33:13;8.23;;;6.37;;
16665;SDS011;8446;50.998;6.250;2022-07-21T08:35:40;11.60;;;7.00;;
16665;SDS011;8446;50.998;6.250;2022-07-21T08:38:07;18.17;;;5.80;;
16665;SDS011;8446;50.998;6.250;2022-07-21T08:40:37;9.60;;;6.90;;
16665;SDS011;8446;50.998;6.250;2022-07-21T08:43:05;12.03;;;5.53;;
16665;SDS011;8446;50.998;6.250;2022-07-21T08:45:35;6.90;;;5.53;;
16665;SDS011;8446;50.998;6.250;2022-07-21T08:48:03;9.33;;;6.10;;
16665;SDS011;8446;50.998;6.250;2022-07-21T08:50:30;9.70;;;6.33;;
16665;SDS011;8446;50.998;6.250;2022-07-21T08:52:59;7.97;;;5.87;;
16665;SDS011;8446;50.998;6.250;2022-07-21T08:55:27;8.80;;;6.17;;
16665;SDS011;8446;50.998;6.250;2022-07-21T08:57:56;9.60;;;5.87;;
16665;SDS011;8446;50.998;6.250;2022-07-21T09:00:22;12.90;;;6.10;;
16665;SDS011;8446;50.998;6.250;2022-07-21T09:02:50;10.23;;;6.03;;
16665;SDS011;8446;50.998;6.250;2022-07-21T09:05:34;6.83;;;5.83;;
16665;SDS011;8446;50.998;6.250;2022-07-21T09:08:01;11.23;;;7.27;;
16665;SDS011;8446;50.998;6.250;2022-07-21T09:10:29;10.80;;;6.70;;
16665;SDS011;8446;50.998;6.250;2022-07-21T09:12:58;9.40;;;6.30;;
16665;SDS011;8446;50.998;6.250;2022-07-21T09:15:26;8.90;;;6.10;;
16665;SDS011;8446;50.998;6.250;2022-07-21T09:18:04;10.97;;;7.20;;
16665;SDS011;8446;50.998;6.250;2022-07-21T09:20:33;11.00;;;7.30;;
16665;SDS011;8446;50.998;6.250;2022-07-21T09:23:02;10.40;;;6.47;;
16665;SDS011;8446;50.998;6.250;2022-07-21T09:25:34;12.43;;;7.93;;
16665;SDS011;8446;50.998;6.250;2022-07-21T09:28:09;11.90;;;7.20;;
16665;SDS011;8446;50.998;6.250;2022-07-21T09:30:51;15.80;;;8.17;;
16665;SDS011;8446;50.998;6.250;2022-07-21T09:33:28;16.30;;;8.23;;
16665;SDS011;8446;50.998;6.250;2022-07-21T09:35:59;12.13;;;8.43;;
16665;SDS011;8446;50.998;6.250;2022-07-21T09:38:29;11.83;;;7.60;;
16665;SDS011;8446;50.998;6.250;2022-07-21T09:41:03;10.57;;;7.50;;
16665;SDS011;8446;50.998;6.250;2022-07-21T09:43:35;10.27;;;8.10;;
16665;SDS011;8446;50.998;6.250;2022-07-21T09:46:08;14.10;;;8.90;;
16665;SDS011;8446;50.998;6.250;2022-07-21T09:48:39;17.93;;;9.83;;
16665;SDS011;8446;50.998;6.250;2022-07-21T09:53:51;15.20;;;9.90;;
16665;SDS011;8446;50.998;6.250;2022-07-21T09:56:20;22.83;;;12.07;;
16665;SDS011;8446;50.998;6.250;2022-07-21T09:58:53;18.17;;;10.70;;
16665;SDS011;8446;50.998;6.250;2022-07-21T10:01:21;15.60;;;12.00;;
16665;SDS011;8446;50.998;6.250;2022-07-21T10:03:50;19.30;;;11.90;;
16665;SDS011;8446;50.998;6.250;2022-07-21T10:06:19;13.90;;;11.47;;
16665;SDS011;8446;50.998;6.250;2022-07-21T10:08:48;16.73;;;12.17;;
16665;SDS011;8446;50.998;6.250;2022-07-21T10:11:15;14.73;;;9.47;;
16665;SDS011;8446;50.998;6.250;2022-07-21T10:13:42;17.13;;;12.03;;
16665;SDS011;8446;50.998;6.250;2022-07-21T10:16:10;17.47;;;11.67;;
16665;SDS011;8446;50.998;6.250;2022-07-21T10:18:39;16.70;;;11.23;;
16665;SDS011;8446;50.998;6.250;2022-07-21T10:21:17;18.40;;;11.20;;
16665;SDS011;8446;50.998;6.250;2022-07-21T10:23:53;16.37;;;11.30;;
16665;SDS011;8446;50.998;6.250;2022-07-21T10:26:21;15.10;;;11.13;;
16665;SDS011;8446;50.998;6.250;2022-07-21T10:28:48;15.90;;;10.93;;
16665;SDS011;8446;50.998;6.250;2022-07-21T10:31:16;20.53;;;10.97;;
16665;SDS011;8446;50.998;6.250;2022-07-21T10:33:51;15.17;;;11.23;;
16665;SDS011;8446;50.998;6.250;2022-07-21T10:39:12;19.03;;;11.70;;
16665;SDS011;8446;50.998;6.250;2022-07-21T10:41:56;22.67;;;12.43;;
16665;SDS011;8446;50.998;6.250;2022-07-21T10:44:39;18.57;;;12.57;;
16665;SDS011;8446;50.998;6.250;2022-07-21T10:47:09;19.23;;;12.93;;
16665;SDS011;8446;50.998;6.250;2022-07-21T10:49:41;12.27;;;9.20;;
16665;SDS011;8446;50.998;6.250;2022-07-21T10:55:20;12.27;;;9.40;;
16665;SDS011;8446;50.998;6.250;2022-07-21T11:00:39;15.83;;;10.73;;
16665;SDS011;8446;50.998;6.250;2022-07-21T11:03:13;14.70;;;10.03;;
16665;SDS011;8446;50.998;6.250;2022-07-21T11:08:43;14.67;;;9.30;;
16665;SDS011;8446;50.998;6.250;2022-07-21T11:11:13;12.60;;;8.60;;
16665;SDS011;8446;50.998;6.250;2022-07-21T11:19:26;14.13;;;10.57;;
16665;SDS011;8446;50.998;6.250;2022-07-21T11:21:55;15.87;;;11.07;;
16665;SDS011;8446;50.998;6.250;2022-07-21T11:24:23;13.60;;;9.70;;
16665;SDS011;8446;50.998;6.250;2022-07-21T11:26:54;25.87;;;11.70;;
16665;SDS011;8446;50.998;6.250;2022-07-21T11:29:21;19.57;;;12.80;;
16665;SDS011;8446;50.998;6.250;2022-07-21T11:31:49;20.43;;;12.60;;
16665;SDS011;8446;50.998;6.250;2022-07-21T11:34:16;21.57;;;13.20;;
16665;SDS011;8446;50.998;6.250;2022-07-21T11:36:43;21.83;;;14.20;;
16665;SDS011;8446;50.998;6.250;2022-07-21T11:39:11;23.87;;;15.27;;
16665;SDS011;8446;50.998;6.250;2022-07-21T11:41:39;25.23;;;15.90;;
16665;SDS011;8446;50.998;6.250;2022-07-21T11:44:09;25.57;;;15.90;;
16665;SDS011;8446;50.998;6.250;2022-07-21T11:46:47;31.20;;;15.90;;
16665;SDS011;8446;50.998;6.250;2022-07-21T11:49:15;29.57;;;16.97;;
16665;SDS011;8446;50.998;6.250;2022-07-21T11:51:46;28.27;;;17.10;;
16665;SDS011;8446;50.998;6.250;2022-07-21T11:54:23;30.97;;;16.30;;
16665;SDS011;8446;50.998;6.250;2022-07-21T11:56:53;32.20;;;19.23;;
16665;SDS011;8446;50.998;6.250;2022-07-21T11:59:22;36.57;;;18.97;;
16665;SDS011;8446;50.998;6.250;2022-07-21T12:01:50;36.70;;;17.20;;
16665;SDS011;8446;50.998;6.250;2022-07-21T12:04:32;33.93;;;18.97;;
16665;SDS011;8446;50.998;6.250;2022-07-21T12:07:02;29.67;;;16.50;;
16665;SDS011;8446;50.998;6.250;2022-07-21T12:09:30;35.00;;;18.43;;
16665;SDS011;8446;50.998;6.250;2022-07-21T12:11:58;30.63;;;16.07;;
16665;SDS011;8446;50.998;6.250;2022-07-21T12:17:13;24.53;;;15.30;;
16665;SDS011;8446;50.998;6.250;2022-07-21T12:19:41;16.87;;;10.80;;
16665;SDS011;8446;50.998;6.250;2022-07-21T12:22:08;20.47;;;8.37;;
16665;SDS011;8446;50.998;6.250;2022-07-21T12:24:47;8.73;;;6.70;;
16665;SDS011;8446;50.998;6.250;2022-07-21T12:27:19;14.07;;;8.40;;
16665;SDS011;8446;50.998;6.250;2022-07-21T12:29:48;8.73;;;6.90;;
16665;SDS011;8446;50.998;6.250;2022-07-21T12:32:23;10.73;;;7.13;;
16665;SDS011;8446;50.998;6.250;2022-07-21T12:35:15;10.07;;;7.40;;
16665;SDS011;8446;50.998;6.250;2022-07-21T12:37:57;14.13;;;7.00;;
16665;SDS011;8446;50.998;6.250;2022-07-21T12:40:26;14.13;;;8.43;;
16665;SDS011;8446;50.998;6.250;2022-07-21T12:43:10;14.83;;;9.27;;
16665;SDS011;8446;50.998;6.250;2022-07-21T12:45:48;11.50;;;9.30;;
16665;SDS011;8446;50.998;6.250;2022-07-21T12:48:23;23.17;;;10.30;;
16665;SDS011;8446;50.998;6.250;2022-07-21T12:51:05;16.60;;;11.27;;
16665;SDS011;8446;50.998;6.250;2022-07-21T12:53:36;15.30;;;11.40;;
16665;SDS011;8446;50.998;6.250;2022-07-21T12:56:04;17.10;;;12.20;;
16665;SDS011;8446;50.998;6.250;2022-07-21T12:58:32;18.10;;;12.23;;
16665;SDS011;8446;50.998;6.250;2022-07-21T13:01:00;21.80;;;11.80;;
16665;SDS011;8446;50.998;6.250;2022-07-21T13:03:27;21.23;;;12.80;;
16665;SDS011;8446;50.998;6.250;2022-07-21T13:05:55;15.83;;;11.80;;
16665;SDS011;8446;50.998;6.250;2022-07-21T13:08:22;15.30;;;10.77;;
16665;SDS011;8446;50.998;6.250;2022-07-21T13:10:48;19.03;;;10.97;;
16665;SDS011;8446;50.998;6.250;2022-07-21T13:13:15;13.30;;;10.90;;
16665;SDS011;8446;50.998;6.250;2022-07-21T13:15:42;15.17;;;10.30;;
16665;SDS011;8446;50.998;6.250;2022-07-21T13:18:10;16.23;;;10.50;;
16665;SDS011;8446;50.998;6.250;2022-07-21T13:20:37;15.53;;;9.20;;
16665;SDS011;8446;50.998;6.250;2022-07-21T13:23:04;14.30;;;10.03;;
16665;SDS011;8446;50.998;6.250;2022-07-21T13:25:33;21.53;;;11.47;;
16665;SDS011;8446;50.998;6.250;2022-07-21T13:28:00;16.70;;;12.33;;
16665;SDS011;8446;50.998;6.250;2022-07-21T13:30:27;19.77;;;12.07;;
16665;SDS011;8446;50.998;6.250;2022-07-21T13:32:53;15.40;;;11.80;;
16665;SDS011;8446;50.998;6.250;2022-07-21T13:35:22;17.03;;;11.20;;
16665;SDS011;8446;50.998;6.250;2022-07-21T13:37:48;9.90;;;7.50;;
16665;SDS011;8446;50.998;6.250;2022-07-21T13:40:15;11.50;;;7.67;;
16665;SDS011;8446;50.998;6.250;2022-07-21T13:42:42;14.10;;;7.50;;
16665;SDS011;8446;50.998;6.250;2022-07-21T13:45:09;12.30;;;7.90;;
16665;SDS011;8446;50.998;6.250;2022-07-21T13:47:38;8.80;;;7.50;;
16665;SDS011;8446;50.998;6.250;2022-07-21T13:50:05;9.10;;;6.70;;
16665;SDS011;8446;50.998;6.250;2022-07-21T13:52:34;10.63;;;7.80;;
16665;SDS011;8446;50.998;6.250;2022-07-21T13:55:01;11.40;;;7.93;;
16665;SDS011;8446;50.998;6.250;2022-07-21T13:57:28;12.50;;;9.00;;
16665;SDS011;8446;50.998;6.250;2022-07-21T13:59:55;12.20;;;8.87;;
16665;SDS011;8446;50.998;6.250;2022-07-21T14:02:21;14.77;;;9.67;;
16665;SDS011;8446;50.998;6.250;2022-07-21T14:04:48;20.43;;;10.63;;
16665;SDS011;8446;50.998;6.250;2022-07-21T14:07:15;15.63;;;10.83;;
16665;SDS011;8446;50.998;6.250;2022-07-21T14:09:43;16.27;;;10.70;;
16665;SDS011;8446;50.998;6.250;2022-07-21T14:12:10;17.93;;;9.40;;
16665;SDS011;8446;50.998;6.250;2022-07-21T14:14:37;11.37;;;9.80;;
16665;SDS011;8446;50.998;6.250;2022-07-21T14:17:04;13.20;;;10.27;;
16665;SDS011;8446;50.998;6.250;2022-07-21T14:19:31;11.27;;;8.67;;
16665;SDS011;8446;50.998;6.250;2022-07-21T14:21:57;10.67;;;8.00;;
16665;SDS011;8446;50.998;6.250;2022-07-21T14:24:24;9.43;;;8.27;;
16665;SDS011;8446;50.998;6.250;2022-07-21T14:27:10;8.40;;;7.57;;
16665;SDS011;8446;50.998;6.250;2022-07-21T14:29:37;10.47;;;7.03;;
16665;SDS011;8446;50.998;6.250;2022-07-21T14:32:04;8.33;;;6.00;;
16665;SDS011;8446;50.998;6.250;2022-07-21T14:34:31;9.93;;;6.53;;
16665;SDS011;8446;50.998;6.250;2022-07-21T14:36:58;13.93;;;5.70;;
16665;SDS011;8446;50.998;6.250;2022-07-21T14:39:25;5.77;;;5.17;;
16665;SDS011;8446;50.998;6.250;2022-07-21T14:41:51;7.23;;;5.10;;
16665;SDS011;8446;50.998;6.250;2022-07-21T14:44:19;5.73;;;5.10;;
16665;SDS011;8446;50.998;6.250;2022-07-21T14:46:46;5.87;;;5.17;;
16665;SDS011;8446;50.998;6.250;2022-07-21T14:49:13;6.80;;;5.53;;
16665;SDS011;8446;50.998;6.250;2022-07-21T14:51:40;10.97;;;5.63;;
16665;SDS011;8446;50.998;6.250;2022-07-21T14:54:06;6.80;;;5.37;;
16665;SDS011;8446;50.998;6.250;2022-07-21T14:56:33;7.80;;;6.10;;
16665;SDS011;8446;50.998;6.250;2022-07-21T14:59:00;8.30;;;7.00;;
16665;SDS011;8446;50.998;6.250;2022-07-21T15:01:28;10.30;;;8.30;;
16665;SDS011;8446;50.998;6.250;2022-07-21T15:03:55;11.83;;;9.53;;
16665;SDS011;8446;50.998;6.250;2022-07-21T15:06:22;13.37;;;9.47;;
16665;SDS011;8446;50.998;6.250;2022-07-21T15:08:48;14.77;;;10.47;;
16665;SDS011;8446;50.998;6.250;2022-07-21T15:11:15;13.40;;;9.63;;
16665;SDS011;8446;50.998;6.250;2022-07-21T15:13:43;12.10;;;9.10;;